Time;durP1;ratioP1;P1;durP2;ratioP2;P2;SDS_P1;SDS_P2;PMS_P1;PMS_P2;Temp;Humidity;BMP_temperature;BMP_pressure;BME280_temperature;BME280_humidity;BME280_pressure;Samples;Min_cycle;Max_cycle;Signal;HPM_P1;HPM_P2
2022/08/31 00:04:35;;;;;;;13.13;11.75;;;;;;;20.53;nan;95062.72;4961144;28;20204;-66
2022/08/31 00:07:02;;;;;;;16.10;12.90;;;;;;;20.47;nan;95063.16;4965869;28;20238;-67
2022/08/31 00:09:31;;;;;;;13.45;12.07;;;;;;;20.17;nan;95072.13;4968339;28;21629;-65
2022/08/31 00:11:58;;;;;;;14.02;12.65;;;;;;;19.98;nan;95064.06;4968175;28;20215;-64
2022/08/31 00:14:26;;;;;;;14.00;12.60;;;;;;;19.96;nan;95063.34;4966572;28;20236;-65
2022/08/31 00:16:54;;;;;;;14.25;12.95;;;;;;;20.24;nan;95063.03;4967135;28;20213;-65
2022/08/31 00:19:21;;;;;;;12.60;10.95;;;;;;;20.61;nan;95060.41;4967910;28;20280;-64
2022/08/31 00:21:48;;;;;;;13.50;12.15;;;;;;;20.58;nan;95055.44;4965655;28;20219;-66
2022/08/31 00:24:14;;;;;;;13.30;12.10;;;;;;;20.51;nan;95054.28;4964776;28;20201;-65
2022/08/31 00:26:42;;;;;;;15.25;13.70;;;;;;;20.45;nan;95047.78;4960527;28;20258;-65
2022/08/31 00:29:09;;;;;;;15.18;12.48;;;;;;;20.29;nan;95055.75;4965168;28;20212;-66
2022/08/31 00:31:36;;;;;;;16.90;13.30;;;;;;;20.02;nan;95055.19;4966771;28;20216;-65
2022/08/31 00:34:04;;;;;;;14.40;11.85;;;;;;;19.97;nan;95060.66;4964891;28;20297;-65
2022/08/31 00:36:31;;;;;;;16.67;13.10;;;;;;;20.23;nan;95061.38;4967503;28;20239;-65
2022/08/31 00:38:58;;;;;;;15.10;12.60;;;;;;;20.38;nan;95055.16;4968169;28;20251;-65
2022/08/31 00:41:27;;;;;;;14.45;12.80;;;;;;;20.56;nan;95062.47;4967240;28;20760;-64
2022/08/31 00:43:57;;;;;;;14.57;11.57;;;;;;;20.72;nan;95063.03;4969283;28;20278;-65
2022/08/31 00:46:26;;;;;;;16.13;12.20;;;;;;;20.85;nan;95063.75;4967431;28;20219;-65
2022/08/31 00:48:59;;;;;;;14.45;11.75;;;;;;;20.88;nan;95068.69;4965074;28;20961;-64
2022/08/31 00:51:29;;;;;;;13.77;11.65;;;;;;;20.64;nan;95070.50;4967874;28;20240;-64
2022/08/31 00:53:57;;;;;;;13.18;11.88;;;;;;;20.40;nan;95067.94;4965594;28;20651;-65
2022/08/31 00:56:25;;;;;;;13.15;11.40;;;;;;;20.48;nan;95072.56;4968358;28;20954;-66
2022/08/31 00:58:53;;;;;;;13.32;12.07;;;;;;;20.69;nan;95069.25;4964793;28;20236;-67
2022/08/31 01:01:20;;;;;;;12.77;11.77;;;;;;;20.98;nan;95064.50;4963872;28;20454;-65
2022/08/31 01:03:48;;;;;;;15.63;12.55;;;;;;;20.97;nan;95068.03;4963458;28;20496;-64
2022/08/31 01:06:15;;;;;;;14.38;11.88;;;;;;;20.98;nan;95069.69;4969638;28;20220;-66
2022/08/31 01:08:44;;;;;;;14.98;12.98;;;;;;;20.95;nan;95064.75;4968270;28;20204;-66
2022/08/31 01:11:12;;;;;;;12.10;10.90;;;;;;;21.02;nan;95067.69;4966661;28;20318;-66
2022/08/31 01:13:39;;;;;;;13.77;12.40;;;;;;;20.65;nan;95072.16;4969578;28;20650;-64
2022/08/31 01:16:12;;;;;;;17.42;12.02;;;;;;;20.79;nan;95069.38;4966972;28;20279;-65
2022/08/31 01:18:41;;;;;;;13.20;11.82;;;;;;;21.14;nan;95074.50;4967287;28;20232;-65
2022/08/31 01:21:21;;;;;;;14.13;11.88;;;;;;;21.27;nan;95074.47;4962246;28;20625;-65
2022/08/31 01:23:49;;;;;;;12.60;11.30;;;;;;;21.47;nan;95075.53;4964805;28;20266;-66
2022/08/31 01:26:19;;;;;;;12.63;11.50;;;;;;;21.54;nan;95072.34;4962677;28;20828;-66
2022/08/31 01:28:46;;;;;;;12.73;11.52;;;;;;;21.59;nan;95074.59;4960590;28;20212;-67
2022/08/31 01:31:19;;;;;;;13.85;11.55;;;;;;;21.76;nan;95073.31;4962949;28;20208;-64
2022/08/31 01:33:46;;;;;;;12.85;11.27;;;;;;;21.57;nan;95077.28;4963366;28;22569;-65
2022/08/31 01:36:14;;;;;;;14.25;12.05;;;;;;;21.38;nan;95077.03;4964131;28;20204;-65
2022/08/31 01:38:41;;;;;;;13.23;12.10;;;;;;;21.31;nan;95070.69;4967946;28;20208;-66
2022/08/31 01:41:10;;;;;;;18.88;12.40;;;;;;;21.40;nan;95059.66;4970072;28;20270;-65
2022/08/31 01:43:37;;;;;;;17.08;11.55;;;;;;;21.44;nan;95070.59;4968676;28;20212;-64
2022/08/31 01:46:05;;;;;;;16.85;12.63;;;;;;;21.45;nan;95070.47;4967727;28;20216;-64
2022/08/31 01:48:32;;;;;;;14.45;12.95;;;;;;;21.43;nan;95069.78;4963899;28;20667;-65
2022/08/31 01:50:59;;;;;;;18.05;14.85;;;;;;;21.29;nan;95067.38;4966731;28;20885;-65
2022/08/31 01:53:26;;;;;;;15.27;11.73;;;;;;;21.13;nan;95064.28;4968472;28;20277;-65
2022/08/31 01:55:52;;;;;;;20.60;15.88;;;;;;;21.21;nan;95065.41;4968392;28;20217;-65
2022/08/31 01:58:21;;;;;;;15.23;13.35;;;;;;;21.26;nan;95068.47;4967440;28;20670;-64
2022/08/31 02:00:47;;;;;;;16.13;14.43;;;;;;;21.27;nan;95064.13;4971084;28;20295;-64
2022/08/31 02:03:14;;;;;;;16.00;13.85;;;;;;;21.19;nan;95066.44;4972823;28;20201;-65
2022/08/31 02:05:41;;;;;;;14.82;12.52;;;;;;;21.14;nan;95065.94;4971797;28;20224;-64
2022/08/31 02:08:10;;;;;;;13.90;12.43;;;;;;;21.00;nan;95061.81;4971650;28;20207;-65
2022/08/31 02:10:37;;;;;;;14.35;12.88;;;;;;;20.63;nan;95063.69;4972013;28;20219;-66
2022/08/31 02:13:04;;;;;;;16.05;13.80;;;;;;;20.55;nan;95066.00;4969967;28;20208;-65
2022/08/31 02:15:33;;;;;;;13.90;12.57;;;;;;;20.68;nan;95062.44;4969374;28;20678;-66
2022/08/31 02:17:59;;;;;;;14.68;13.07;;;;;;;20.63;nan;95063.69;4971852;28;20211;-64
2022/08/31 02:20:26;;;;;;;16.80;12.25;;;;;;;20.40;nan;95067.13;4969409;28;20290;-65
2022/08/31 02:22:53;;;;;;;13.30;12.02;;;;;;;20.26;nan;95071.50;4970810;28;20275;-64
2022/08/31 02:25:20;;;;;;;13.65;12.40;;;;;;;20.13;nan;95069.88;4970835;28;20741;-63
2022/08/31 02:27:47;;;;;;;14.07;12.75;;;;;;;20.08;nan;95070.19;4970686;28;20215;-64
2022/08/31 02:30:16;;;;;;;15.80;12.40;;;;;;;20.17;nan;95072.13;4971879;28;20212;-64
2022/08/31 02:32:44;;;;;;;16.67;12.00;;;;;;;20.22;nan;95067.47;4969643;28;20251;-64
2022/08/31 02:35:11;;;;;;;13.68;12.23;;;;;;;20.15;nan;95068.84;4968132;28;20204;-64
2022/08/31 02:37:38;;;;;;;14.32;13.00;;;;;;;19.97;nan;95059.81;4969508;28;20259;-65
2022/08/31 02:40:08;;;;;;;14.27;12.82;;;;;;;19.79;nan;95066.28;4968506;28;20317;-64
2022/08/31 02:42:35;;;;;;;13.85;12.48;;;;;;;19.63;nan;95062.16;4968460;28;20211;-64
2022/08/31 02:45:02;;;;;;;14.82;13.38;;;;;;;19.51;nan;95057.88;4969470;28;20232;-63
2022/08/31 02:47:30;;;;;;;14.30;12.93;;;;;;;19.57;nan;95062.59;4969232;28;20786;-64
2022/08/31 02:49:58;;;;;;;13.88;11.93;;;;;;;19.67;nan;95048.13;4968874;28;20215;-67
2022/08/31 02:52:25;;;;;;;19.88;13.20;;;;;;;19.66;nan;95046.50;4968237;28;20212;-63
2022/08/31 02:54:51;;;;;;;18.13;13.73;;;;;;;19.52;nan;95048.38;4970422;28;20344;-64
2022/08/31 02:57:18;;;;;;;13.27;12.10;;;;;;;19.60;nan;95053.81;4971963;28;20728;-64
2022/08/31 02:59:45;;;;;;;13.77;12.57;;;;;;;19.49;nan;95059.69;4973346;28;20267;-64
2022/08/31 03:02:12;;;;;;;13.85;12.23;;;;;;;19.60;nan;95058.97;4970200;28;20603;-64
2022/08/31 03:04:39;;;;;;;15.93;14.23;;;;;;;19.47;nan;95051.25;4973157;28;20820;-64
2022/08/31 03:07:07;;;;;;;13.23;12.10;;;;;;;19.37;nan;95060.53;4972001;28;21270;-64
2022/08/31 03:09:34;;;;;;;15.05;13.52;;;;;;;19.42;nan;95063.63;4971868;28;20200;-64
2022/08/31 03:12:00;;;;;;;15.13;13.63;;;;;;;19.31;nan;95063.50;4969886;28;20220;-66
2022/08/31 03:14:27;;;;;;;16.08;12.30;;;;;;;19.31;nan;95063.50;4969653;28;20251;-65
2022/08/31 03:16:54;;;;;;;14.43;12.50;;;;;;;19.45;nan;95058.25;4970938;28;20215;-64
2022/08/31 03:19:21;;;;;;;15.55;13.77;;;;;;;19.55;nan;95061.06;4971816;28;20227;-64
2022/08/31 03:21:48;;;;;;;18.00;12.77;;;;;;;19.58;nan;95059.06;4970091;28;20224;-64
2022/08/31 03:24:17;;;;;;;12.93;11.65;;;;;;;19.58;nan;95060.84;4970710;28;20204;-64
2022/08/31 03:26:44;;;;;;;20.17;14.30;;;;;;;19.09;nan;95058.97;4969384;28;20200;-64
2022/08/31 03:29:12;;;;;;;19.35;14.52;;;;;;;18.53;nan;95053.22;4971364;28;20810;-64
2022/08/31 03:31:39;;;;;;;15.95;14.13;;;;;;;18.59;nan;95057.97;4968792;28;20599;-64
2022/08/31 03:34:06;;;;;;;17.15;13.63;;;;;;;18.92;nan;95054.13;4969968;28;20278;-64
2022/08/31 03:36:33;;;;;;;27.13;15.30;;;;;;;18.88;nan;95052.69;4969174;28;20236;-64
2022/08/31 03:39:00;;;;;;;19.42;16.42;;;;;;;19.07;nan;95057.44;4969143;28;20196;-64
2022/08/31 03:41:28;;;;;;;18.40;16.02;;;;;;;19.03;nan;95057.66;4970622;28;20627;-64
2022/08/31 03:43:55;;;;;;;15.95;14.18;;;;;;;19.01;nan;95053.53;4971939;28;20282;-64
2022/08/31 03:46:22;;;;;;;16.38;14.50;;;;;;;19.01;nan;95054.34;4970490;28;20253;-64
2022/08/31 03:48:49;;;;;;;16.77;14.38;;;;;;;19.09;nan;95061.56;4971432;28;20795;-64
2022/08/31 03:51:17;;;;;;;15.68;13.52;;;;;;;18.90;nan;95058.56;4970786;28;20211;-64
2022/08/31 03:53:44;;;;;;;15.40;13.82;;;;;;;18.96;nan;95064.13;4969944;28;22510;-64
2022/08/31 03:56:11;;;;;;;15.20;13.77;;;;;;;19.12;nan;95063.94;4969335;28;20246;-65
2022/08/31 03:58:39;;;;;;;15.95;13.93;;;;;;;19.09;nan;95065.88;4970991;28;20240;-64
2022/08/31 04:01:06;;;;;;;16.35;14.18;;;;;;;19.21;nan;95062.50;4968523;28;20232;-63
2022/08/31 04:03:33;;;;;;;23.42;16.17;;;;;;;19.29;nan;95066.22;4968927;28;20232;-64
2022/08/31 04:06:00;;;;;;;15.93;13.50;;;;;;;19.29;nan;95067.97;4967490;28;20706;-65
2022/08/31 04:08:26;;;;;;;15.57;14.02;;;;;;;19.20;nan;95063.41;4966839;28;20212;-65
2022/08/31 04:10:53;;;;;;;18.02;14.13;;;;;;;19.27;nan;95072.41;4967726;28;21007;-64
2022/08/31 04:13:22;;;;;;;17.35;15.10;;;;;;;19.16;nan;95064.56;4967775;28;20237;-63
2022/08/31 04:15:51;;;;;;;17.65;14.82;;;;;;;19.34;nan;95065.88;4970035;28;20208;-66
2022/08/31 04:18:19;;;;;;;19.90;15.23;;;;;;;19.42;nan;95055.88;4970153;28;20286;-65
2022/08/31 04:20:46;;;;;;;15.05;13.57;;;;;;;19.27;nan;95059.50;4969658;28;20235;-66
2022/08/31 04:23:12;;;;;;;20.90;17.30;;;;;;;19.18;nan;95062.69;4967571;28;20666;-64
2022/08/31 04:25:41;;;;;;;45.22;29.52;;;;;;;19.23;nan;95063.22;4970060;28;20313;-63
2022/08/31 04:28:09;;;;;;;33.42;22.20;;;;;;;19.25;nan;95066.53;4968249;28;20768;-64
2022/08/31 04:30:38;;;;;;;20.67;16.45;;;;;;;19.48;nan;95065.78;4970388;28;20211;-64
2022/08/31 04:33:06;;;;;;;16.40;14.27;;;;;;;19.44;nan;95072.06;4969301;28;20741;-64
2022/08/31 04:35:33;;;;;;;19.33;14.07;;;;;;;19.64;nan;95068.97;4969068;28;21202;-64
2022/08/31 04:38:00;;;;;;;15.38;13.80;;;;;;;19.84;nan;95065.00;4968603;28;21596;-64
2022/08/31 04:40:27;;;;;;;17.90;14.25;;;;;;;19.78;nan;95069.78;4968862;28;20355;-64
2022/08/31 04:42:53;;;;;;;31.88;21.60;;;;;;;19.70;nan;95070.31;4967851;28;20290;-65
2022/08/31 04:45:20;;;;;;;29.77;19.27;;;;;;;19.91;nan;95062.84;4969477;28;20200;-64
2022/08/31 04:47:47;;;;;;;21.50;15.50;;;;;;;20.02;nan;95068.06;4970398;28;20211;-64
2022/08/31 04:50:16;;;;;;;15.77;13.75;;;;;;;20.08;nan;95061.63;4969036;28;20232;-65
2022/08/31 04:52:43;;;;;;;16.10;14.27;;;;;;;20.07;nan;95065.97;4968560;28;20208;-65
2022/08/31 04:55:11;;;;;;;25.83;18.08;;;;;;;19.93;nan;95066.13;4970329;28;20308;-65
2022/08/31 04:57:39;;;;;;;21.48;16.55;;;;;;;19.50;nan;95066.53;4968709;28;20238;-64
2022/08/31 05:00:08;;;;;;;18.10;15.80;;;;;;;19.60;nan;95070.09;4968078;28;20211;-65
2022/08/31 05:02:35;;;;;;;20.15;15.68;;;;;;;19.96;nan;95063.34;4969134;28;20208;-65
2022/08/31 05:05:02;;;;;;;18.00;14.02;;;;;;;20.40;nan;95056.78;4968947;28;20212;-64
2022/08/31 05:07:30;;;;;;;18.80;13.18;;;;;;;20.79;nan;95059.03;4968438;28;20277;-65
2022/08/31 05:09:57;;;;;;;19.05;12.48;;;;;;;21.36;nan;95059.06;4970097;28;20666;-65
2022/08/31 05:12:24;;;;;;;13.32;11.82;;;;;;;22.18;nan;95061.38;4967057;28;20287;-64
2022/08/31 05:14:51;;;;;;;18.75;12.43;;;;;;;23.08;nan;95060.91;4970426;28;20697;-65
2022/08/31 05:17:18;;;;;;;16.67;12.15;;;;;;;24.08;nan;95058.47;4969464;28;20212;-65
2022/08/31 05:19:44;;;;;;;16.58;12.27;;;;;;;24.76;nan;95056.78;4967884;28;20584;-65
2022/08/31 05:22:11;;;;;;;12.88;11.38;;;;;;;24.66;nan;95058.59;4968178;28;20668;-65
2022/08/31 05:24:39;;;;;;;14.82;11.95;;;;;;;24.56;nan;95055.97;4968898;28;20208;-65
2022/08/31 05:27:06;;;;;;;14.05;10.73;;;;;;;25.09;nan;95056.38;4968977;28;20212;-64
2022/08/31 05:29:33;;;;;;;13.82;12.32;;;;;;;25.05;nan;95056.81;4968539;28;20204;-65
2022/08/31 05:32:00;;;;;;;14.40;11.52;;;;;;;25.85;nan;95053.72;4968412;28;20228;-65
2022/08/31 05:34:27;;;;;;;12.07;10.35;;;;;;;27.38;nan;95044.91;4972218;28;20235;-65
2022/08/31 05:36:55;;;;;;;16.35;10.48;;;;;;;28.54;nan;95038.19;4972340;28;20273;-64
2022/08/31 05:39:23;;;;;;;12.00;10.18;;;;;;;29.53;nan;95027.53;4971193;28;20211;-65
2022/08/31 05:41:51;;;;;;;14.38;10.23;;;;;;;29.81;nan;95034.00;4972916;28;20627;-65
2022/08/31 05:44:19;;;;;;;15.60;9.82;;;;;;;30.43;nan;95027.00;4973068;28;20219;-65
2022/08/31 05:46:46;;;;;;;11.60;10.50;;;;;;;30.80;nan;95028.09;4971794;28;20219;-65
2022/08/31 05:49:13;;;;;;;12.80;10.00;;;;;;;31.73;nan;95027.72;4969767;28;20208;-65
2022/08/31 05:51:40;;;;;;;10.65;9.85;;;;;;;31.87;nan;95024.28;4972232;28;20231;-68
2022/08/31 05:54:09;;;;;;;14.70;10.30;;;;;;;32.46;nan;95019.72;4970997;28;20210;-65
2022/08/31 05:56:39;;;;;;;13.65;10.30;;;;;;;32.94;nan;95021.81;4973364;28;20217;-67
2022/08/31 05:59:08;;;;;;;18.23;10.25;;;;;;;32.86;nan;95020.16;4972165;28;20232;-65
2022/08/31 06:01:38;;;;;;;15.02;10.15;;;;;;;32.99;nan;95022.06;4972974;28;20338;-66
2022/08/31 06:04:05;;;;;;;10.70;9.68;;;;;;;33.13;nan;95016.75;4972662;28;20209;-65
2022/08/31 06:06:32;;;;;;;12.25;9.98;;;;;;;32.95;nan;95019.00;4971203;28;20346;-65
2022/08/31 06:08:59;;;;;;;16.20;10.68;;;;;;;33.52;nan;95015.41;4973279;28;20270;-65
2022/08/31 06:11:33;;;;;;;10.20;9.20;;;;;;;34.49;nan;95011.81;4970782;28;20318;-66
2022/08/31 06:14:02;;;;;;;11.02;9.63;;;;;;;35.48;nan;95015.34;4973569;28;20237;-66
2022/08/31 06:16:31;;;;;;;10.18;9.20;;;;;;;35.60;nan;95008.41;4972393;28;20212;-66
2022/08/31 06:19:02;;;;;;;10.77;9.80;;;;;;;35.00;nan;95009.47;4972729;28;20238;-65
2022/08/31 06:21:33;;;;;;;17.25;10.02;;;;;;;35.26;nan;95006.00;4971304;28;20239;-65
2022/08/31 06:24:02;;;;;;;11.48;10.35;;;;;;;35.51;nan;95001.72;4976902;28;20304;-69
2022/08/31 06:26:31;;;;;;;10.57;9.45;;;;;;;35.66;nan;95002.28;4975124;28;20236;-66
2022/08/31 06:28:59;;;;;;;12.48;10.20;;;;;;;36.25;nan;95003.97;4972834;28;20716;-66
2022/08/31 06:31:31;;;;;;;13.45;9.93;;;;;;;35.77;nan;95006.97;4973757;28;20204;-66
2022/08/31 06:34:00;;;;;;;14.68;10.60;;;;;;;35.84;nan;95006.97;4973101;28;20204;-64
2022/08/31 06:36:29;;;;;;;10.77;9.73;;;;;;;35.90;nan;95010.56;4972249;28;20353;-65
2022/08/31 06:38:58;;;;;;;11.95;9.63;;;;;;;36.00;nan;95005.66;4972036;28;20267;-65
2022/08/31 06:41:28;;;;;;;13.55;9.43;;;;;;;36.60;nan;95006.22;4971256;28;20909;-65
2022/08/31 06:43:55;;;;;;;11.32;10.25;;;;;;;36.51;nan;95010.13;4971602;28;20241;-66
2022/08/31 06:46:23;;;;;;;9.98;9.02;;;;;;;37.33;nan;95006.53;4967995;28;20208;-64
2022/08/31 06:48:50;;;;;;;9.65;8.63;;;;;;;36.18;nan;95011.06;4972757;28;20209;-65
2022/08/31 06:51:18;;;;;;;10.18;9.38;;;;;;;36.66;nan;95008.00;4971550;28;21089;-65
2022/08/31 06:53:45;;;;;;;9.50;8.73;;;;;;;36.97;nan;95008.00;4971138;28;20240;-64
2022/08/31 06:56:14;;;;;;;10.95;9.02;;;;;;;35.97;nan;95008.72;4971308;28;20286;-66
2022/08/31 06:58:40;;;;;;;12.35;9.18;;;;;;;36.39;nan;95010.78;4969922;28;20815;-65
2022/08/31 07:01:10;;;;;;;10.65;9.70;;;;;;;36.45;nan;95014.44;4970423;28;20330;-65
2022/08/31 07:03:38;;;;;;;14.48;13.07;;;;;;;36.70;nan;95015.28;4972839;28;20203;-65
2022/08/31 07:06:08;;;;;;;10.73;9.82;;;;;;;37.48;nan;95009.63;4970177;28;20714;-64
2022/08/31 07:08:37;;;;;;;19.08;11.93;;;;;;;37.13;nan;95004.81;4970777;28;20213;-66
2022/08/31 07:11:04;;;;;;;9.48;8.75;;;;;;;37.08;nan;95002.03;4970861;28;20205;-66
2022/08/31 07:13:31;;;;;;;10.77;9.30;;;;;;;36.88;nan;95003.19;4970464;28;21761;-65
2022/08/31 07:16:06;;;;;;;12.63;8.55;;;;;;;35.62;nan;95010.84;4972152;28;20216;-65
2022/08/31 07:18:33;;;;;;;12.23;7.97;;;;;;;35.78;nan;95011.25;4969822;28;20231;-66
2022/08/31 07:21:08;;;;;;;12.98;9.80;;;;;;;37.02;nan;95015.31;4970545;28;20232;-66
2022/08/31 07:23:36;;;;;;;20.42;12.65;;;;;;;37.02;nan;95010.81;4971529;28;20212;-66
2022/08/31 07:26:05;;;;;;;8.95;8.25;;;;;;;36.61;nan;95007.84;4970373;28;20403;-64
2022/08/31 07:28:33;;;;;;;18.50;12.50;;;;;;;36.86;nan;95016.66;4971909;28;21166;-66
2022/08/31 07:31:01;;;;;;;19.50;12.80;;;;;;;36.82;nan;95014.66;4970405;28;20204;-66
2022/08/31 07:33:36;;;;;;;20.15;12.68;;;;;;;36.67;nan;95017.56;4970991;28;20208;-66
2022/08/31 07:36:04;;;;;;;16.35;12.20;;;;;;;36.52;nan;95014.41;4970030;28;20207;-65
2022/08/31 07:44:02;;;;;;;11.55;9.15;;;;;;;35.34;nan;95011.09;4970852;28;20856;-65
2022/08/31 07:46:30;;;;;;;9.05;8.10;;;;;;;34.67;nan;95009.38;4970798;28;20204;-66
2022/08/31 07:48:57;;;;;;;10.00;9.07;;;;;;;34.71;nan;95005.34;4970990;28;22068;-66
2022/08/31 07:51:24;;;;;;;11.45;9.07;;;;;;;34.36;nan;95005.50;4970055;28;20262;-65
2022/08/31 07:53:51;;;;;;;10.13;9.13;;;;;;;34.12;nan;95001.53;4970541;28;20726;-65
2022/08/31 07:56:22;;;;;;;9.88;8.55;;;;;;;32.97;nan;94998.56;4968755;28;20204;-65
2022/08/31 07:58:49;;;;;;;47.40;37.05;;;;;;;32.92;nan;94997.50;4968765;28;20236;-65
2022/08/31 08:01:16;;;;;;;26.17;19.95;;;;;;;32.19;nan;95007.25;4969247;28;21146;-64
2022/08/31 08:03:43;;;;;;;15.00;13.38;;;;;;;31.91;nan;94998.47;4966855;28;20232;-64
2022/08/31 08:06:13;;;;;;;10.70;8.93;;;;;;;31.89;nan;95005.72;4971013;28;20221;-65
2022/08/31 08:08:41;;;;;;;15.25;11.73;;;;;;;31.62;nan;95000.09;4971335;28;20212;-65
2022/08/31 08:11:08;;;;;;;13.68;11.70;;;;;;;31.20;nan;95005.13;4970197;28;21069;-65
2022/08/31 08:13:37;;;;;;;17.25;14.07;;;;;;;31.18;nan;94996.63;4968466;28;20207;-65
2022/08/31 08:16:03;;;;;;;12.77;8.30;;;;;;;31.45;nan;94996.00;4968483;28;20343;-65
2022/08/31 08:18:30;;;;;;;16.08;8.85;;;;;;;31.56;nan;94992.09;4970629;28;20504;-66
2022/08/31 08:20:57;;;;;;;9.18;8.48;;;;;;;30.99;nan;94993.47;4971436;28;20755;-66
2022/08/31 08:23:24;;;;;;;13.05;9.82;;;;;;;31.14;nan;94993.53;4970144;28;20216;-64
2022/08/31 08:25:50;;;;;;;14.27;9.13;;;;;;;31.11;nan;94986.00;4968750;28;20208;-66
2022/08/31 08:28:18;;;;;;;12.30;11.02;;;;;;;31.23;nan;94989.00;4970597;28;20208;-66
2022/08/31 08:30:49;;;;;;;13.27;11.73;;;;;;;31.00;nan;94989.84;4970202;28;20212;-66
2022/08/31 08:33:16;;;;;;;15.20;11.75;;;;;;;31.10;nan;94998.31;4970408;28;20299;-65
2022/08/31 08:35:43;;;;;;;12.07;10.88;;;;;;;31.00;nan;94989.03;4970352;28;20215;-64
2022/08/31 08:38:10;;;;;;;12.50;10.52;;;;;;;30.79;nan;94987.09;4971309;28;20232;-65
2022/08/31 08:40:41;;;;;;;10.48;9.35;;;;;;;30.60;nan;94996.25;4968482;28;20197;-64
2022/08/31 08:43:10;;;;;;;12.20;9.40;;;;;;;30.76;nan;94987.44;4968601;28;20316;-67
2022/08/31 08:45:38;;;;;;;12.82;10.50;;;;;;;30.67;nan;94980.66;4966098;28;20696;-64
2022/08/31 08:48:11;;;;;;;10.52;9.43;;;;;;;30.69;nan;94987.31;4968764;28;20254;-67
2022/08/31 08:50:41;;;;;;;13.23;7.97;;;;;;;30.23;nan;94983.84;4970125;28;20322;-65
2022/08/31 08:53:11;;;;;;;12.48;10.13;;;;;;;29.83;nan;94974.41;4969057;28;20196;-64
2022/08/31 08:55:41;;;;;;;11.63;8.85;;;;;;;30.19;nan;94979.94;4967431;28;20235;-65
2022/08/31 08:58:12;;;;;;;10.23;9.35;;;;;;;30.46;nan;94973.38;4967683;28;20247;-66
2022/08/31 09:00:45;;;;;;;9.88;7.95;;;;;;;30.75;nan;94964.81;4966413;28;20213;-65
2022/08/31 09:03:24;;;;;;;8.55;7.93;;;;;;;30.87;nan;94963.41;4966062;28;20701;-66
2022/08/31 09:06:01;;;;;;;18.85;8.55;;;;;;;30.97;nan;94958.72;4966940;28;20228;-65
2022/08/31 09:09:02;;;;;;;18.08;8.82;;;;;;;30.34;nan;94957.25;4966389;28;20674;-66
2022/08/31 09:11:40;;;;;;;13.65;9.70;;;;;;;30.28;nan;94949.25;4969865;28;20208;-66
2022/08/31 09:14:25;;;;;;;17.30;9.73;;;;;;;30.32;nan;94940.06;4968229;28;20322;-66
2022/08/31 09:17:00;;;;;;;9.90;8.95;;;;;;;30.41;nan;94942.47;4969744;28;20299;-65
2022/08/31 09:19:56;;;;;;;9.70;7.78;;;;;;;30.40;nan;94940.00;4968162;28;20207;-65
2022/08/31 09:22:14;;;;;;;8.40;7.60;;;;;;;30.70;nan;94935.66;4968730;28;20216;-66
2022/08/31 09:24:42;;;;;;;8.32;7.72;;;;;;;30.88;nan;94930.94;4967531;28;21510;-64
2022/08/31 09:27:17;;;;;;;9.43;8.43;;;;;;;31.01;nan;94933.75;4966498;28;20333;-66
2022/08/31 09:29:46;;;;;;;8.02;7.43;;;;;;;31.15;nan;94931.34;4970399;28;20286;-66
2022/08/31 09:32:22;;;;;;;8.73;8.15;;;;;;;30.89;nan;94924.69;4968101;28;20237;-66
2022/08/31 09:34:59;;;;;;;9.52;8.45;;;;;;;30.86;nan;94930.28;4966817;28;20710;-64
2022/08/31 09:37:32;;;;;;;9.55;8.63;;;;;;;30.79;nan;94934.63;4970714;28;20682;-65
2022/08/31 09:40:15;;;;;;;10.38;8.82;;;;;;;30.85;nan;94923.41;4967557;28;20228;-67
2022/08/31 09:42:43;;;;;;;9.32;7.78;;;;;;;30.81;nan;94927.38;4970400;28;20227;-64
2022/08/31 09:45:28;;;;;;;10.32;8.55;;;;;;;30.77;nan;94918.25;4966753;28;22843;-65
2022/08/31 09:48:00;;;;;;;13.93;8.48;;;;;;;30.78;nan;94909.38;4969638;28;20235;-65
2022/08/31 09:50:35;;;;;;;10.52;8.77;;;;;;;30.55;nan;94898.91;4970761;28;20632;-66
2022/08/31 09:56:12;;;;;;;8.90;8.18;;;;;;;30.34;nan;94889.09;4965818;28;20208;-65
2022/08/31 09:58:41;;;;;;;9.07;8.23;;;;;;;30.45;nan;94886.03;4969614;28;20744;-65
2022/08/31 10:01:14;;;;;;;10.88;7.57;;;;;;;30.48;nan;94881.41;4968495;28;20215;-64
2022/08/31 10:03:46;;;;;;;8.35;7.78;;;;;;;30.55;nan;94882.34;4966230;28;20721;-64
2022/08/31 10:06:34;;;;;;;11.45;7.68;;;;;;;30.87;nan;94879.44;4967333;28;20240;-65
2022/08/31 10:09:05;;;;;;;8.75;7.78;;;;;;;30.78;nan;94883.13;4960562;28;20212;-64
2022/08/31 10:11:35;;;;;;;10.00;7.65;;;;;;;30.36;nan;94892.34;4967761;28;20580;-65
2022/08/31 10:14:08;;;;;;;12.68;8.88;;;;;;;30.61;nan;94884.28;4962221;28;23063;-65
2022/08/31 10:16:41;;;;;;;9.98;7.65;;;;;;;30.85;nan;94878.00;4965930;28;20561;-65
2022/08/31 10:19:13;;;;;;;10.95;8.20;;;;;;;30.99;nan;94878.00;4970125;28;20262;-64
2022/08/31 10:21:50;;;;;;;9.85;9.02;;;;;;;30.88;nan;94875.00;4972418;28;20504;-65
2022/08/31 10:24:28;;;;;;;12.25;8.77;;;;;;;31.12;nan;94874.78;4969689;28;20216;-64
2022/08/31 10:27:07;;;;;;;25.48;20.33;;;;;;;30.84;nan;94885.06;4973380;28;20240;-65
2022/08/31 10:29:51;;;;;;;21.65;16.92;;;;;;;29.81;nan;94882.06;4970309;28;20211;-66
2022/08/31 10:32:30;;;;;;;23.75;17.33;;;;;;;28.95;nan;94879.50;4972031;28;20216;-66
2022/08/31 10:35:04;;;;;;;25.42;18.80;;;;;;;28.24;nan;94875.78;4969533;28;20212;-66
2022/08/31 10:37:48;;;;;;;16.55;10.05;;;;;;;27.38;nan;94873.47;4971283;28;20227;-66
2022/08/31 10:40:18;;;;;;;12.10;11.00;;;;;;;26.94;nan;94872.78;4969488;28;20215;-64
2022/08/31 10:42:58;;;;;;;17.65;11.20;;;;;;;26.48;nan;94880.97;4970122;28;20239;-66
2022/08/31 10:45:28;;;;;;;15.52;10.85;;;;;;;26.48;nan;94878.38;4970214;28;20263;-66
2022/08/31 10:47:56;;;;;;;9.80;8.27;;;;;;;26.28;nan;94888.91;4969091;28;20531;-66
2022/08/31 10:50:30;;;;;;;13.35;11.10;;;;;;;26.01;nan;94886.41;4970594;28;20238;-66
2022/08/31 10:53:12;;;;;;;13.32;8.98;;;;;;;25.84;nan;94889.84;4969293;28;20204;-66
2022/08/31 10:55:48;;;;;;;12.05;9.23;;;;;;;25.67;nan;94892.28;4969145;28;20279;-67
2022/08/31 10:58:24;;;;;;;10.20;9.15;;;;;;;25.68;nan;94896.53;4969706;28;20239;-66
2022/08/31 11:00:56;;;;;;;9.98;9.18;;;;;;;25.59;nan;94901.75;4972829;28;20270;-66
2022/08/31 11:03:40;;;;;;;14.25;9.32;;;;;;;25.14;nan;94905.16;4971570;28;20224;-67
2022/08/31 11:06:18;;;;;;;11.35;10.35;;;;;;;25.30;nan;94909.72;4968352;28;20260;-66
2022/08/31 11:08:56;;;;;;;15.65;11.40;;;;;;;25.19;nan;94915.13;4972620;28;20266;-67
2022/08/31 11:11:35;;;;;;;12.10;10.90;;;;;;;25.11;nan;94922.81;4970849;28;20698;-65
2022/08/31 11:14:28;;;;;;;16.73;10.88;;;;;;;24.73;nan;94916.75;4972653;28;20215;-65
2022/08/31 11:17:18;;;;;;;19.10;11.27;;;;;;;24.71;nan;94914.28;4970996;28;20208;-69
2022/08/31 11:20:04;;;;;;;18.52;10.93;;;;;;;24.46;nan;94912.28;4970942;28;20208;-65
2022/08/31 11:23:00;;;;;;;21.40;11.32;;;;;;;24.61;nan;94916.09;4971661;28;20465;-66
2022/08/31 11:26:07;;;;;;;13.63;11.65;;;;;;;24.51;nan;94922.25;4969974;28;20618;-66
2022/08/31 11:28:37;;;;;;;14.65;11.55;;;;;;;24.63;nan;94923.75;4964568;28;20208;-65
2022/08/31 11:31:19;;;;;;;14.20;12.40;;;;;;;24.38;nan;94915.56;4970650;28;20201;-66
2022/08/31 11:33:49;;;;;;;14.82;11.65;;;;;;;24.27;nan;94902.72;4970754;28;20201;-66
2022/08/31 11:36:48;;;;;;;15.57;11.43;;;;;;;24.15;nan;94890.84;4968974;28;20634;-66
2022/08/31 11:39:25;;;;;;;14.10;11.07;;;;;;;24.18;nan;94887.97;4970137;28;20648;-66
2022/08/31 11:41:54;;;;;;;12.43;11.00;;;;;;;24.30;nan;94880.84;4970228;28;20736;-66
2022/08/31 11:45:08;;;;;;;11.85;10.70;;;;;;;24.35;nan;94876.06;4970053;28;20255;-67
2022/08/31 11:47:42;;;;;;;16.17;10.50;;;;;;;24.29;nan;94874.84;4941864;28;20204;-66
2022/08/31 11:50:53;;;;;;;14.35;12.73;;;;;;;24.25;nan;94877.88;4967455;28;20715;-66
2022/08/31 11:53:28;;;;;;;15.45;10.52;;;;;;;24.37;nan;94867.19;4967824;28;20551;-66
2022/08/31 11:56:02;;;;;;;22.50;11.02;;;;;;;24.46;nan;94875.09;4969832;28;20217;-66
2022/08/31 11:58:34;;;;;;;16.05;11.02;;;;;;;24.73;nan;94867.38;4970509;28;20242;-66
2022/08/31 12:01:38;;;;;;;11.70;10.63;;;;;;;24.68;nan;94869.56;4971029;28;20363;-66
2022/08/31 12:04:05;;;;;;;16.20;10.60;;;;;;;24.84;nan;94872.38;4972216;28;20224;-66